Time;durP1;ratioP1;P1;durP2;ratioP2;P2;SDS_P1;SDS_P2;PMS_P1;PMS_P2;Temp;Humidity;BMP_temperature;BMP_pressure;BME280_temperature;BME280_humidity;BME280_pressure;Samples;Min_cycle;Max_cycle;Signal;HPM_P1;HPM_P2
2024/02/15 00:02:54;;;;;;;13.10;8.90;;;;;;;8.67;83.11;100728.86;129264;1281;116631;-62
2024/02/15 00:05:56;;;;;;;15.70;9.30;;;;;;;8.67;83.38;100731.16;129437;1271;114723;-62
2024/02/15 00:08:58;;;;;;;11.60;7.10;;;;;;;8.67;83.13;100734.89;129471;1263;115173;-62
2024/02/15 00:12:00;;;;;;;14.70;8.80;;;;;;;8.68;83.07;100734.87;129402;1272;114846;-62
2024/02/15 00:15:03;;;;;;;12.00;7.40;;;;;;;8.68;83.25;100728.82;129397;1263;115182;-63
2024/02/15 00:18:05;;;;;;;13.60;7.80;;;;;;;8.68;83.39;100726.84;129511;1263;114774;-62
2024/02/15 00:21:07;;;;;;;15.00;9.20;;;;;;;8.68;83.23;100719.92;129348;1268;128287;-62
2024/02/15 00:24:10;;;;;;;18.20;11.40;;;;;;;8.66;83.04;100718.02;129500;1274;114874;-62
2024/02/15 00:27:12;;;;;;;19.00;12.00;;;;;;;8.64;82.86;100714.86;129520;1263;114889;-63
2024/02/15 00:30:16;;;;;;;20.80;11.90;;;;;;;8.64;82.96;100713.29;129540;1264;114707;-63
2024/02/15 00:33:18;;;;;;;20.70;10.40;;;;;;;8.63;83.12;100710.79;129582;1281;114845;-63
2024/02/15 00:36:20;;;;;;;20.60;11.00;;;;;;;8.63;83.26;100712.95;129388;1264;115305;-63
2024/02/15 00:39:22;;;;;;;21.90;11.30;;;;;;;8.62;83.04;100710.13;129500;1260;115625;-62
2024/02/15 00:42:25;;;;;;;20.80;12.90;;;;;;;8.60;82.78;100713.61;129177;1281;128487;-63
2024/02/15 00:45:27;;;;;;;22.10;11.60;;;;;;;8.59;83.19;100715.07;129403;1278;114779;-62
2024/02/15 00:48:29;;;;;;;21.70;12.00;;;;;;;8.58;83.11;100715.61;129368;1280;114811;-63
2024/02/15 00:51:35;;;;;;;20.30;11.40;;;;;;;8.57;83.00;100719.02;129596;1261;114705;-63
2024/02/15 00:54:37;;;;;;;22.60;12.30;;;;;;;8.56;83.13;100722.09;129335;1263;115403;-63
2024/02/15 00:57:39;;;;;;;23.70;12.90;;;;;;;8.54;83.29;100722.33;129519;1264;114828;-62
2024/02/15 01:00:44;;;;;;;18.50;11.60;;;;;;;8.54;83.27;100726.43;129455;1281;128328;-62
2024/02/15 01:03:46;;;;;;;19.70;13.10;;;;;;;8.54;83.38;100724.84;129667;1260;114905;-62
2024/02/15 01:06:49;;;;;;;18.80;11.10;;;;;;;8.54;83.49;100722.89;129534;1271;114829;-63
2024/02/15 01:09:51;;;;;;;22.40;12.70;;;;;;;8.53;83.43;100720.76;129524;1263;114714;-62
2024/02/15 01:12:54;;;;;;;20.50;11.20;;;;;;;8.53;83.47;100719.33;129215;1265;115383;-63
2024/02/15 01:15:56;;;;;;;18.70;12.00;;;;;;;8.54;83.52;100718.23;129479;1260;114725;-64
2024/02/15 01:18:58;;;;;;;21.50;11.90;;;;;;;8.55;83.67;100718.92;129406;1260;114773;-63
2024/02/15 01:22:00;;;;;;;19.20;12.80;;;;;;;8.54;83.88;100717.88;129256;1281;128474;-63
2024/02/15 01:25:03;;;;;;;19.70;10.70;;;;;;;8.55;83.88;100717.52;129431;1281;114727;-63
2024/02/15 01:28:06;;;;;;;19.80;12.60;;;;;;;8.56;83.77;100712.65;129236;1271;387121;-63
2024/02/15 01:31:10;;;;;;;20.20;10.90;;;;;;;8.56;83.86;100709.64;129552;1263;114802;-63
2024/02/15 01:34:12;;;;;;;18.40;11.20;;;;;;;8.56;83.77;100708.75;129501;1273;114724;-64
2024/02/15 01:37:14;;;;;;;20.10;11.90;;;;;;;8.56;83.89;100706.96;129492;1261;114712;-62
2024/02/15 01:40:17;;;;;;;16.20;10.10;;;;;;;8.56;83.83;100699.32;129395;1281;128195;-64
2024/02/15 01:43:19;;;;;;;17.60;11.40;;;;;;;8.55;83.95;100697.93;129336;1264;114848;-63
2024/02/15 01:46:21;;;;;;;18.10;9.60;;;;;;;8.55;83.85;100697.39;129466;1262;115203;-63
2024/02/15 01:49:23;;;;;;;15.10;9.80;;;;;;;8.54;84.05;100691.73;129336;1266;114857;-64
2024/02/15 01:52:26;;;;;;;18.00;10.80;;;;;;;8.55;84.12;100693.11;129352;1263;115393;-63
2024/02/15 01:55:28;;;;;;;18.40;10.10;;;;;;;8.55;83.96;100693.64;129420;1263;114775;-64
2024/02/15 01:58:34;;;;;;;18.50;11.90;;;;;;;8.57;83.98;100693.05;129451;1260;114951;-63
2024/02/15 02:01:36;;;;;;;17.30;9.70;;;;;;;8.58;84.09;100695.84;129368;1264;128491;-63
2024/02/15 02:04:38;;;;;;;17.50;10.70;;;;;;;8.59;84.14;100691.91;129373;1263;114791;-63
2024/02/15 02:07:40;;;;;;;17.50;11.50;;;;;;;8.58;83.92;100693.17;129512;1263;114931;-63
2024/02/15 02:10:42;;;;;;;14.50;8.80;;;;;;;8.58;83.95;100690.33;129302;1258;114913;-63
2024/02/15 02:13:44;;;;;;;15.50;10.30;;;;;;;8.59;84.30;100684.08;129416;1264;115379;-63
2024/02/15 02:16:46;;;;;;;17.50;10.70;;;;;;;8.58;83.92;100682.85;129450;1263;114736;-63
2024/02/15 02:19:52;;;;;;;20.20;10.00;;;;;;;8.57;83.90;100676.84;129247;1263;115044;-63
2024/02/15 02:23:01;;;;;;;16.90;8.90;;;;;;;8.57;84.07;100678.27;129449;1281;128867;-62
2024/02/15 02:26:03;;;;;;;16.10;8.90;;;;;;;8.57;84.10;100672.76;129435;1281;115448;-63
2024/02/15 02:29:05;;;;;;;16.10;10.10;;;;;;;8.58;84.06;100674.48;129533;1258;114757;-63
2024/02/15 02:32:07;;;;;;;17.40;9.30;;;;;;;8.58;84.28;100673.08;129444;1264;114672;-63
2024/02/15 02:35:12;;;;;;;16.70;10.60;;;;;;;8.58;83.94;100672.17;129328;1259;115931;-63
2024/02/15 02:38:14;;;;;;;16.50;10.20;;;;;;;8.59;84.31;100673.40;129458;1264;114804;-62
2024/02/15 02:41:19;;;;;;;15.60;9.20;;;;;;;8.58;84.16;100672.17;129352;1259;114771;-62
2024/02/15 02:44:21;;;;;;;15.10;8.60;;;;;;;8.57;83.92;100670.08;129366;1265;114893;-63
2024/02/15 02:47:23;;;;;;;15.40;10.60;;;;;;;8.58;84.32;100668.80;129399;1273;115281;-62
2024/02/15 02:50:25;;;;;;;15.10;9.40;;;;;;;8.57;84.46;100666.33;129549;1263;114879;-63
2024/02/15 02:53:28;;;;;;;16.10;9.40;;;;;;;8.56;84.21;100664.41;129567;1260;114731;-63
2024/02/15 02:56:32;;;;;;;15.50;8.80;;;;;;;8.55;84.17;100662.30;129594;1263;115391;-63
2024/02/15 02:59:35;;;;;;;14.60;8.50;;;;;;;8.55;84.54;100658.93;129505;1264;114781;-63
2024/02/15 03:02:37;;;;;;;12.90;8.80;;;;;;;8.54;84.41;100657.71;129443;1281;114832;-63
2024/02/15 03:05:40;;;;;;;14.00;8.20;;;;;;;8.53;84.52;100657.92;129512;1258;114704;-63
2024/02/15 03:08:42;;;;;;;14.30;8.70;;;;;;;8.52;84.37;100661.15;129550;1262;114726;-65
2024/02/15 03:11:44;;;;;;;11.60;7.80;;;;;;;8.54;84.59;100664.13;129559;1264;114795;-63
2024/02/15 03:14:46;;;;;;;13.10;7.80;;;;;;;8.52;84.72;100660.27;129400;1281;114885;-63
2024/02/15 03:17:49;;;;;;;12.40;9.00;;;;;;;8.52;84.71;100659.03;129629;1259;114714;-63
2024/02/15 03:20:51;;;;;;;12.70;8.70;;;;;;;8.52;84.57;100663.67;129542;1263;114723;-62
2024/02/15 03:23:54;;;;;;;12.20;8.40;;;;;;;8.51;84.56;100661.75;129463;1264;116377;-63
2024/02/15 03:26:56;;;;;;;10.40;7.60;;;;;;;8.52;84.81;100663.83;129448;1260;115081;-63
2024/02/15 03:29:59;;;;;;;13.40;8.10;;;;;;;8.51;84.78;100665.28;129465;1258;114784;-64
2024/02/15 03:33:05;;;;;;;14.60;9.50;;;;;;;8.51;84.72;100664.40;129437;1271;114811;-64
2024/02/15 03:36:07;;;;;;;;;;;;;;;8.52;84.89;100670.60;129410;1275;128288;-63
2024/02/15 03:39:13;;;;;;;14.50;8.80;;;;;;;8.51;84.65;100669.23;129445;1274;114770;-63
2024/02/15 03:42:15;;;;;;;;;;;;;;;8.50;85.19;100671.73;129394;1260;115017;-63
2024/02/15 03:45:17;;;;;;;12.90;7.90;;;;;;;8.50;85.15;100673.34;129431;1274;114887;-63
2024/02/15 03:48:19;;;;;;;12.10;8.40;;;;;;;8.50;84.92;100677.27;129558;1264;114722;-63
2024/02/15 03:51:23;;;;;;;14.30;9.40;;;;;;;8.51;84.79;100677.05;129238;1267;114755;-63
2024/02/15 03:54:29;;;;;;;12.30;9.00;;;;;;;8.51;84.83;100671.89;129300;1281;128381;-62
2024/02/15 03:57:33;;;;;;;12.70;8.10;;;;;;;8.52;85.05;100669.02;129172;1281;116534;-63
2024/02/15 04:00:35;;;;;;;9.20;7.00;;;;;;;8.53;84.99;100668.09;129441;1263;114708;-63
2024/02/15 04:03:37;;;;;;;11.40;8.00;;;;;;;8.53;85.23;100666.65;129425;1261;114809;-63
2024/02/15 04:06:41;;;;;;;15.20;8.90;;;;;;;8.54;85.12;100669.83;129529;1260;115181;-63
2024/02/15 04:09:43;;;;;;;13.10;8.80;;;;;;;8.56;85.16;100672.80;129290;1264;115011;-62
2024/02/15 04:12:46;;;;;;;11.50;6.80;;;;;;;8.56;85.00;100673.84;129590;1262;114860;-63
2024/02/15 04:15:50;;;;;;;10.30;8.00;;;;;;;8.58;85.13;100678.60;129676;1258;115147;-63
2024/02/15 04:18:52;;;;;;;13.90;8.20;;;;;;;8.58;85.14;100675.20;129578;1258;115405;-63
2024/02/15 04:21:58;;;;;;;14.10;10.00;;;;;;;8.60;85.52;100674.61;129544;1259;115393;-63
2024/02/15 04:25:00;;;;;;;13.70;9.70;;;;;;;8.61;85.23;100675.27;129469;1264;114730;-63
2024/02/15 04:28:03;;;;;;;15.00;9.60;;;;;;;8.61;85.40;100671.02;129380;1262;114822;-63
2024/02/15 04:31:08;;;;;;;12.90;7.70;;;;;;;8.62;85.53;100677.71;129406;1263;115405;-63
2024/02/15 04:34:11;;;;;;;13.40;8.70;;;;;;;8.62;85.25;100679.31;129299;1266;115343;-64
2024/02/15 04:37:13;;;;;;;10.80;8.10;;;;;;;8.64;85.30;100678.54;129504;1258;114790;-63
2024/02/15 04:40:18;;;;;;;13.60;8.70;;;;;;;8.65;85.35;100684.38;129528;1262;115136;-64
2024/02/15 04:43:20;;;;;;;11.50;7.70;;;;;;;8.67;85.24;100686.29;129401;1281;128728;-63
2024/02/15 04:46:22;;;;;;;10.40;7.20;;;;;;;8.68;85.37;100684.13;129406;1281;114752;-63
2024/02/15 04:49:24;;;;;;;13.10;8.20;;;;;;;8.69;85.30;100680.70;129448;1258;114758;-63
2024/02/15 04:52:26;;;;;;;10.40;7.20;;;;;;;8.69;85.28;100685.86;129242;1259;115111;-63
2024/02/15 04:55:31;;;;;;;13.80;8.50;;;;;;;8.69;85.18;100689.93;129456;1263;114731;-63
2024/02/15 04:58:36;;;;;;;11.00;7.60;;;;;;;8.70;85.19;100684.21;129330;1260;114806;-63
2024/02/15 05:01:40;;;;;;;15.30;7.80;;;;;;;8.70;85.26;100681.02;129583;1271;128765;-63
2024/02/15 05:04:42;;;;;;;12.90;8.50;;;;;;;8.70;85.30;100680.32;129668;1258;114718;-63
2024/02/15 05:07:44;;;;;;;12.30;7.80;;;;;;;8.69;85.17;100683.38;129623;1264;114716;-64
2024/02/15 05:10:46;;;;;;;13.00;8.50;;;;;;;8.68;85.24;100682.51;129591;1264;114751;-63
2024/02/15 05:13:51;;;;;;;10.70;8.70;;;;;;;8.67;85.46;100679.35;129533;1263;114819;-63
2024/02/15 05:16:53;;;;;;;12.90;8.20;;;;;;;8.66;85.43;100680.80;129298;1259;114722;-63
2024/02/15 05:19:58;;;;;;;10.10;7.70;;;;;;;8.66;85.41;100682.21;129497;1262;114695;-63
2024/02/15 05:23:00;;;;;;;;;;;;;;;8.66;85.28;100679.56;129252;1281;114749;-64
2024/02/15 05:26:03;;;;;;;11.60;7.20;;;;;;;8.64;85.44;100682.11;129359;1263;114736;-64
2024/02/15 05:29:05;;;;;;;9.60;6.90;;;;;;;8.63;85.54;100682.50;129414;1263;115242;-63
2024/02/15 05:32:07;;;;;;;10.70;7.30;;;;;;;8.63;85.43;100683.95;129441;1263;115389;-63
2024/02/15 05:35:11;;;;;;;14.10;9.30;;;;;;;8.62;85.54;100684.13;129363;1264;114775;-63
2024/02/15 05:38:15;;;;;;;11.60;9.10;;;;;;;8.62;85.91;100684.11;129453;1273;115043;-63
2024/02/15 05:41:19;;;;;;;12.60;9.70;;;;;;;8.62;85.66;100689.83;129463;1262;114712;-63
2024/02/15 05:44:22;;;;;;;12.10;9.20;;;;;;;8.62;85.74;100692.33;129575;1263;115328;-63
2024/02/15 05:47:24;;;;;;;12.40;7.90;;;;;;;8.62;85.55;100694.11;129460;1273;114714;-63
2024/02/15 05:50:29;;;;;;;13.70;9.20;;;;;;;8.61;85.63;100697.52;129419;1263;115228;-64
2024/02/15 05:53:35;;;;;;;11.10;8.10;;;;;;;8.60;85.43;100699.35;129274;1281;128625;-63
2024/02/15 05:56:37;;;;;;;11.50;8.10;;;;;;;8.58;85.68;100699.77;129456;1258;114799;-63
2024/02/15 05:59:40;;;;;;;10.20;8.00;;;;;;;8.57;85.54;100697.67;129412;1263;114748;-63
2024/02/15 06:02:42;;;;;;;12.00;8.60;;;;;;;8.55;85.60;100700.06;129517;1264;114807;-63
2024/02/15 06:05:44;;;;;;;12.90;8.10;;;;;;;8.53;85.58;100699.58;129417;1264;114814;-64
2024/02/15 06:08:47;;;;;;;15.10;8.80;;;;;;;8.51;85.72;100700.73;129432;1259;114739;-63
2024/02/15 06:11:51;;;;;;;14.00;10.70;;;;;;;8.51;85.87;100702.16;129417;1259;127787;-63
2024/02/15 06:14:53;;;;;;;12.70;9.10;;;;;;;8.52;86.09;100705.86;129504;1281;114727;-65
2024/02/15 06:17:57;;;;;;;14.40;9.60;;;;;;;8.51;86.12;100705.69;129459;1263;115392;-63
2024/02/15 06:21:00;;;;;;;11.80;8.70;;;;;;;8.52;85.95;100704.63;129511;1264;114850;-63
2024/02/15 06:24:03;;;;;;;12.50;9.50;;;;;;;8.52;85.90;100705.30;129403;1261;114718;-63
2024/02/15 06:27:05;;;;;;;15.80;10.50;;;;;;;8.53;85.98;100703.14;129346;1263;115114;-63
2024/02/15 06:40:17;;;;;;;14.70;10.70;;;;;;;8.71;86.32;100711.24;129410;1264;114652;-63
2024/02/15 06:43:19;;;;;;;12.80;8.80;;;;;;;8.79;86.42;100714.35;129427;1281;114722;-63
2024/02/15 06:46:21;;;;;;;14.40;10.20;;;;;;;8.87;86.34;100718.53;129474;1279;115336;-63
2024/02/15 06:49:26;;;;;;;11.20;9.00;;;;;;;8.92;86.16;100721.91;129274;1265;128510;-63
2024/02/15 06:52:28;;;;;;;;;;;;;;;8.96;85.99;100721.41;129414;1264;114734;-63
2024/02/15 06:55:30;;;;;;;16.30;9.50;;;;;;;9.00;86.05;100725.55;129399;1264;114788;-64
2024/02/15 06:58:33;;;;;;;13.10;9.20;;;;;;;9.04;86.07;100724.51;129469;1281;114755;-63
2024/02/15 07:01:35;;;;;;;15.10;9.70;;;;;;;9.08;86.06;100723.27;129433;1264;114830;-63
2024/02/15 07:04:37;;;;;;;14.00;10.00;;;;;;;9.13;85.99;100720.95;129413;1263;114703;-63
2024/02/15 07:07:39;;;;;;;13.30;9.60;;;;;;;9.18;86.12;100718.30;129476;1258;117604;-64
2024/02/15 07:10:41;;;;;;;13.70;8.80;;;;;;;9.23;85.87;100715.95;129405;1281;128121;-63
2024/02/15 07:13:43;;;;;;;12.00;9.20;;;;;;;9.27;85.81;100716.67;129711;1258;114774;-62
2024/02/15 07:16:47;;;;;;;13.20;9.20;;;;;;;9.32;85.85;100720.45;129691;1262;114761;-64
2024/02/15 07:19:49;;;;;;;10.90;9.40;;;;;;;9.36;85.89;100724.22;129590;1258;115393;-64
2024/02/15 07:22:51;;;;;;;15.00;8.80;;;;;;;9.39;85.72;100722.85;129381;1264;115267;-63
2024/02/15 07:25:54;;;;;;;13.80;8.40;;;;;;;9.46;85.75;100724.58;129579;1263;115169;-63
2024/02/15 07:28:57;;;;;;;11.50;9.10;;;;;;;9.51;85.65;100725.45;129467;1265;114905;-63
2024/02/15 07:32:04;;;;;;;10.70;7.90;;;;;;;9.57;85.49;100717.89;129808;1273;127971;-63
2024/02/15 07:35:07;;;;;;;13.80;9.70;;;;;;;9.65;85.28;100716.16;129424;1281;116462;-64
2024/02/15 07:38:10;;;;;;;12.40;9.30;;;;;;;9.75;85.56;100712.04;129575;1281;115416;-64
2024/02/15 07:41:12;;;;;;;12.70;10.10;;;;;;;9.85;85.03;100714.86;129592;1263;115350;-64
2024/02/15 07:44:15;;;;;;;13.70;10.50;;;;;;;9.94;85.43;100716.64;129555;1264;114825;-64
2024/02/15 07:47:20;;;;;;;16.00;10.60;;;;;;;10.04;85.27;100714.42;129432;1281;114758;-64
2024/02/15 07:50:22;;;;;;;16.80;9.90;;;;;;;10.15;85.42;100713.63;129461;1280;114856;-65
2024/02/15 07:53:25;;;;;;;14.60;10.20;;;;;;;10.24;85.17;100719.70;129486;1259;114761;-63
2024/02/15 07:56:27;;;;;;;14.60;9.70;;;;;;;10.32;84.72;100717.23;129418;1263;114714;-63
2024/02/15 07:59:29;;;;;;;12.40;9.10;;;;;;;10.40;84.87;100715.49;129393;1259;114832;-63
2024/02/15 08:02:32;;;;;;;10.80;7.50;;;;;;;10.49;84.65;100714.38;129475;1263;116403;-64
2024/02/15 08:05:35;;;;;;;12.20;8.60;;;;;;;10.54;83.86;100715.81;129389;1271;114819;-65
2024/02/15 08:08:37;;;;;;;13.90;9.00;;;;;;;10.58;84.24;100715.27;129359;1281;114756;-64
2024/02/15 08:11:40;;;;;;;13.10;9.30;;;;;;;10.63;83.92;100719.88;129508;1261;114806;-63
2024/02/15 08:14:42;;;;;;;12.00;9.50;;;;;;;10.66;83.54;100717.61;129401;1263;114742;-64
2024/02/15 08:17:48;;;;;;;13.70;9.10;;;;;;;10.73;83.49;100723.58;129485;1261;114810;-64
2024/02/15 08:20:51;;;;;;;13.30;9.80;;;;;;;10.82;83.99;100723.89;129618;1258;116589;-63
2024/02/15 08:23:53;;;;;;;11.60;8.30;;;;;;;10.88;83.64;100730.05;129465;1281;128649;-64
2024/02/15 08:26:59;;;;;;;12.80;7.90;;;;;;;10.92;83.27;100731.10;129464;1260;115108;-63
2024/02/15 08:30:03;;;;;;;11.70;8.60;;;;;;;10.92;82.99;100732.00;129233;1261;114777;-63
2024/02/15 08:33:05;;;;;;;13.10;8.50;;;;;;;10.95;82.93;100734.74;129455;1264;114798;-63
2024/02/15 08:36:10;;;;;;;14.20;9.70;;;;;;;10.99;82.71;100734.06;129322;1259;114801;-63
2024/02/15 08:39:12;;;;;;;13.40;9.30;;;;;;;11.04;83.09;100735.45;129641;1258;128844;-63
2024/02/15 08:42:14;;;;;;;12.40;8.60;;;;;;;11.08;82.60;100736.30;129704;1263;115332;-63
2024/02/15 08:45:20;;;;;;;14.10;9.00;;;;;;;11.18;83.01;100735.34;129551;1263;115474;-64
2024/02/15 08:48:23;;;;;;;15.10;10.00;;;;;;;11.27;82.73;100738.34;129484;1258;114733;-64
2024/02/15 08:51:25;;;;;;;14.80;9.00;;;;;;;11.35;82.36;100743.36;129448;1274;114700;-63
2024/02/15 08:54:27;;;;;;;13.50;8.80;;;;;;;11.41;82.34;100748.09;129584;1264;114823;-64
2024/02/15 08:57:31;;;;;;;15.30;9.20;;;;;;;11.46;82.43;100747.69;129384;1264;128508;-64
2024/02/15 09:00:33;;;;;;;12.80;8.80;;;;;;;11.51;82.33;100745.46;129538;1258;114778;-64
2024/02/15 09:03:36;;;;;;;11.20;8.40;;;;;;;11.59;82.05;100739.92;129457;1263;114765;-63
2024/02/15 09:06:38;;;;;;;12.70;9.50;;;;;;;11.67;81.79;100741.34;129626;1258;114803;-63
2024/02/15 09:09:40;;;;;;;15.20;7.70;;;;;;;11.73;81.70;100739.11;129470;1281;114867;-63
2024/02/15 09:12:46;;;;;;;13.80;7.80;;;;;;;11.83;81.76;100741.48;129533;1259;114765;-64
2024/02/15 09:15:50;;;;;;;12.50;7.50;;;;;;;11.92;81.38;100740.17;129275;1259;129590;-64
2024/02/15 09:18:52;;;;;;;12.40;8.10;;;;;;;12.04;81.23;100745.39;129612;1260;115307;-63
2024/02/15 09:21:55;;;;;;;15.50;9.40;;;;;;;12.16;81.33;100740.80;129435;1264;114690;-63
2024/02/15 09:24:58;;;;;;;11.30;8.00;;;;;;;12.29;80.96;100739.64;129613;1263;114746;-64
2024/02/15 09:28:00;;;;;;;11.20;7.40;;;;;;;12.37;80.26;100745.38;129614;1259;114813;-64
2024/02/15 09:31:03;;;;;;;11.90;8.50;;;;;;;12.46;80.40;100745.95;129607;1263;114763;-64
2024/02/15 09:34:06;;;;;;;11.90;8.50;;;;;;;12.56;80.36;100742.77;129480;1281;128811;-64
2024/02/15 09:37:08;;;;;;;12.80;8.30;;;;;;;12.66;80.05;100743.55;129447;1264;114704;-63
2024/02/15 09:40:12;;;;;;;10.70;8.30;;;;;;;12.74;79.61;100741.52;129435;1262;114714;-65
2024/02/15 09:43:14;;;;;;;12.10;9.20;;;;;;;12.76;79.02;100741.92;129498;1264;114800;-64
2024/02/15 09:46:17;;;;;;;11.60;8.60;;;;;;;12.80;79.32;100745.53;129409;1276;115256;-65
2024/02/15 09:49:20;;;;;;;11.60;8.60;;;;;;;12.82;79.04;100746.30;129547;1265;114730;-64
2024/02/15 09:52:23;;;;;;;10.60;7.60;;;;;;;12.85;78.88;100746.86;129491;1281;128795;-66
2024/02/15 09:55:26;;;;;;;12.80;8.10;;;;;;;12.86;78.44;100744.48;129689;1259;114769;-64
2024/02/15 09:58:28;;;;;;;14.70;9.10;;;;;;;12.91;78.43;100740.46;129817;1263;114679;-63
2024/02/15 10:01:32;;;;;;;12.70;8.00;;;;;;;12.96;78.48;100741.85;129546;1281;114751;-64
2024/02/15 10:04:34;;;;;;;10.80;8.00;;;;;;;12.99;78.07;100741.52;129413;1264;114749;-65
2024/02/15 10:07:44;;;;;;;11.70;6.60;;;;;;;12.98;77.59;100739.92;129466;1263;114713;-64
2024/02/15 10:10:46;;;;;;;12.00;8.20;;;;;;;12.97;77.65;100738.18;129442;1277;128865;-64
2024/02/15 10:13:48;;;;;;;13.20;8.60;;;;;;;13.00;77.59;100737.14;129353;1259;114826;-65
2024/02/15 10:16:50;;;;;;;14.00;7.70;;;;;;;13.05;77.66;100738.66;129411;1264;114767;-64
2024/02/15 10:20:06;;;;;;;11.30;8.50;;;;;;;13.14;77.55;100735.87;129220;1266;115308;-64
2024/02/15 10:23:10;;;;;;;71.50;43.80;;;;;;;13.26;77.66;100735.02;129286;1264;114871;-64
2024/02/15 10:26:20;;;;;;;29.40;22.10;;;;;;;13.42;77.37;100733.65;129226;1258;115268;-65
2024/02/15 10:29:22;;;;;;;16.50;13.00;;;;;;;13.57;77.18;100727.10;129246;1259;128556;-66
2024/02/15 10:32:34;;;;;;;13.70;10.60;;;;;;;13.72;77.14;100728.40;129361;1260;115354;-64
2024/02/15 10:35:36;;;;;;;12.70;8.20;;;;;;;13.87;76.99;100723.65;129466;1277;115026;-64
2024/02/15 10:38:38;;;;;;;12.30;10.00;;;;;;;14.01;76.66;100722.71;129427;1258;114719;-65
2024/02/15 10:41:41;;;;;;;17.90;13.40;;;;;;;14.13;76.38;100721.30;129529;1263;115315;-65
2024/02/15 10:44:45;;;;;;;17.10;12.00;;;;;;;14.23;76.36;100720.35;129652;1258;114822;-66
2024/02/15 10:47:50;;;;;;;17.50;14.20;;;;;;;14.34;76.25;100715.98;129658;1281;128984;-64
2024/02/15 10:50:54;;;;;;;16.90;10.80;;;;;;;14.42;75.46;100714.19;129551;1270;114913;-64
2024/02/15 10:54:05;;;;;;;16.70;12.30;;;;;;;14.48;75.41;100713.48;129555;1264;114907;-64
2024/02/15 10:57:09;;;;;;;16.00;10.70;;;;;;;14.63;75.48;100711.52;129406;1263;115159;-64
2024/02/15 11:00:20;;;;;;;15.70;9.10;;;;;;;14.78;75.36;100707.25;129376;1259;114858;-64
2024/02/15 11:03:25;;;;;;;14.20;7.40;;;;;;;14.91;75.14;100706.48;129294;1264;128566;-64
2024/02/15 11:06:29;;;;;;;17.10;9.70;;;;;;;15.01;74.73;100703.31;129450;1264;117442;-64
2024/02/15 11:09:32;;;;;;;10.70;7.70;;;;;;;15.09;74.56;100703.37;129780;1265;115381;-65
2024/02/15 11:12:35;;;;;;;11.50;7.60;;;;;;;15.18;74.30;100698.85;129485;1264;114994;-64
2024/02/15 11:15:53;;;;;;;11.90;8.10;;;;;;;15.27;74.84;100698.12;129429;1271;114758;-65
2024/02/15 11:18:55;;;;;;;10.80;6.50;;;;;;;15.36;74.36;100689.88;129395;1259;128496;-65
2024/02/15 11:22:16;;;;;;;11.10;8.50;;;;;;;15.36;74.04;100684.96;129254;1264;114727;-65
2024/02/15 11:25:33;;;;;;;12.10;9.90;;;;;;;15.41;73.92;100684.27;129625;1264;115272;-66
2024/02/15 11:28:38;;;;;;;11.20;6.80;;;;;;;15.50;74.13;100687.30;129323;1264;114988;-65
2024/02/15 11:31:53;;;;;;;11.50;6.90;;;;;;;15.56;73.67;100691.07;129427;1265;114822;-64
2024/02/15 11:35:12;;;;;;;9.70;6.20;;;;;;;15.52;73.21;100689.92;129188;1267;127957;-66
2024/02/15 11:38:27;;;;;;;13.30;8.30;;;;;;;15.48;73.34;100687.61;129063;1267;114864;-65
2024/02/15 11:41:29;;;;;;;10.00;6.50;;;;;;;15.46;73.09;100688.27;129209;1264;114829;-65
2024/02/15 11:44:32;;;;;;;9.60;5.40;;;;;;;15.42;73.29;100683.33;129254;1264;114763;-65
2024/02/15 11:47:39;;;;;;;10.20;6.30;;;;;;;15.45;73.37;100682.06;129499;1262;114769;-65
2024/02/15 11:50:41;;;;;;;9.70;4.90;;;;;;;15.48;73.34;100681.84;129424;1275;114809;-65
2024/02/15 11:53:43;;;;;;;9.30;5.80;;;;;;;15.51;73.26;100676.46;129438;1275;115376;-66
2024/02/15 11:56:54;;;;;;;10.30;6.10;;;;;;;15.56;73.18;100669.17;129230;1264;114878;-66
2024/02/15 12:20:10;;;;;;;9.70;4.90;;;;;;;15.70;72.91;100652.59;129379;1264;114899;-65
2024/02/15 12:23:13;;;;;;;6.10;3.30;;;;;;;15.65;72.87;100652.92;129481;1264;114751;-66
2024/02/15 12:26:20;;;;;;;6.40;3.80;;;;;;;15.60;72.92;100654.84;129499;1265;114797;-67
2024/02/15 12:29:22;;;;;;;8.10;3.80;;;;;;;15.62;73.38;100651.13;129728;1264;114724;-65
2024/02/15 12:32:26;;;;;;;7.60;4.10;;;;;;;15.64;73.35;100646.61;129775;1263;114794;-66
2024/02/15 12:35:27;;;;;;;4.40;3.50;;;;;;;15.62;73.26;100647.84;129594;1264;114729;-64
2024/02/15 12:38:30;;;;;;;6.60;3.80;;;;;;;15.63;73.41;100643.26;129436;1274;114791;-66
2024/02/15 12:41:32;;;;;;;6.00;5.20;;;;;;;15.67;73.21;100642.52;129471;1258;114777;-65
2024/02/15 12:44:35;;;;;;;8.40;6.70;;;;;;;15.66;73.32;100643.11;129418;1264;114709;-65
2024/02/15 12:47:37;;;;;;;6.20;5.40;;;;;;;15.70;73.31;100643.20;129377;1270;114734;-64
2024/02/15 12:50:40;;;;;;;7.10;4.70;;;;;;;15.71;73.43;100639.87;129440;1263;115242;-65
2024/02/15 12:53:42;;;;;;;6.30;3.80;;;;;;;15.72;73.22;100639.82;129268;1259;114873;-64
2024/02/15 12:56:45;;;;;;;12.20;8.80;;;;;;;15.70;73.11;100638.89;129365;1277;114844;-64
2024/02/15 12:59:48;;;;;;;7.20;6.50;;;;;;;15.66;73.26;100641.48;129437;1274;114726;-65
2024/02/15 13:02:51;;;;;;;5.90;3.30;;;;;;;15.62;73.02;100637.40;129367;1259;114726;-64
2024/02/15 13:05:53;;;;;;;5.00;3.10;;;;;;;15.57;73.13;100634.27;129442;1258;114792;-65
2024/02/15 13:08:55;;;;;;;6.30;2.30;;;;;;;15.55;73.13;100627.45;129413;1264;114717;-64
2024/02/15 13:11:58;;;;;;;4.90;2.10;;;;;;;15.55;73.34;100626.51;129287;1265;114900;-65
2024/02/15 13:15:06;;;;;;;4.80;2.20;;;;;;;15.58;73.22;100632.27;129460;1264;114809;-64
2024/02/15 13:18:10;;;;;;;4.90;3.50;;;;;;;15.61;73.22;100625.99;129409;1263;114733;-65
2024/02/15 13:21:12;;;;;;;6.90;4.10;;;;;;;15.65;73.29;100620.99;129243;1264;128038;-64
2024/02/15 13:24:19;;;;;;;8.50;5.20;;;;;;;15.70;73.14;100624.49;129192;1264;114887;-64
2024/02/15 13:27:23;;;;;;;10.20;5.20;;;;;;;15.72;73.20;100621.67;129241;1259;304800;-65
2024/02/15 13:30:27;;;;;;;8.50;6.40;;;;;;;15.75;73.23;100623.79;129524;1277;114767;-65
2024/02/15 13:33:31;;;;;;;8.50;6.30;;;;;;;15.79;73.20;100624.58;129741;1264;114707;-65
2024/02/15 13:36:34;;;;;;;13.10;9.50;;;;;;;15.80;72.99;100622.87;129369;1264;128021;-64
2024/02/15 13:39:38;;;;;;;17.80;13.10;;;;;;;15.80;73.17;100619.83;129553;1263;114799;-64
2024/02/15 13:42:46;;;;;;;19.30;12.30;;;;;;;15.81;72.92;100619.41;129287;1266;114893;-64
2024/02/15 13:45:48;;;;;;;10.90;6.90;;;;;;;15.80;72.63;100619.70;129436;1264;114836;-64
2024/02/15 13:48:51;;;;;;;6.30;4.30;;;;;;;15.79;72.77;100621.54;129571;1275;115095;-64
2024/02/15 13:51:53;;;;;;;8.70;4.90;;;;;;;15.79;72.63;100619.36;129692;1274;114766;-65
2024/02/15 13:54:55;;;;;;;11.00;4.10;;;;;;;15.79;72.76;100622.41;129492;1264;114790;-65
2024/02/15 13:57:59;;;;;;;6.40;2.80;;;;;;;15.84;72.59;100619.80;129486;1258;114838;-64
2024/02/15 14:01:04;;;;;;;7.30;2.70;;;;;;;15.84;72.18;100621.06;129243;1259;114807;-64
2024/02/15 14:04:06;;;;;;;;;;;;;;;15.81;72.15;100621.21;129417;1263;114707;-64
2024/02/15 14:07:09;;;;;;;6.70;3.10;;;;;;;15.79;72.05;100614.32;129450;1263;114699;-65
2024/02/15 14:10:12;;;;;;;4.50;2.80;;;;;;;15.79;72.03;100619.58;129440;1271;114720;-65
2024/02/15 14:13:14;;;;;;;6.70;3.40;;;;;;;15.80;71.76;100613.89;129445;1262;114844;-64
2024/02/15 14:16:17;;;;;;;7.10;4.60;;;;;;;15.78;71.61;100618.33;129517;1280;114680;-64
2024/02/15 14:19:19;;;;;;;8.00;4.90;;;;;;;15.73;71.44;100614.90;129450;1259;115313;-64
2024/02/15 14:22:23;;;;;;;10.40;5.30;;;;;;;15.66;71.22;100612.64;129439;1259;114721;-64